Fort Wayne International Airport
KFWA : now visible

Aeroporto :











RITROVATECI SU...

 
LOGIN :

Iscrizione | Disclaimer

   EN    FR    IT 

 









Sommario :    VFR   VFR Marginale   IFR   IFR Intensivo   IFR Molto Intensivo
Visibilità : 
Base nubi : 
>= 8 km
>= 3000ft
5 / 8 km
1000 / 3000 ft
1500m / 5 km
500 / 1000 ft
800 / 1500m
200 / 500 ft
< 800m
< 200 ft
Simboli :   Temporali  Nebbia  Neve Forte  Precipitazioni Forti  Vento > 20 kt






- Altitudine del aeroporto : 814 ft
- Codice IATA : FWA


KFWA - Fort Wayne International

ULTIMO METAR :
  • 040254Z 24005KT 10SM FEW065 09/05 A3003 RMK AO2 SLP171 T00940050 51005

METARs OBSOLETI :
  • 040154Z 28004KT 10SM FEW070 11/04 A3003 RMK AO2 SLP170 T01060044
  • 040054Z 29005KT 10SM FEW070 13/04 A3002 RMK AO2 SLP169 T01330044

TAF KFWA
Valido dal 04 a 00 ore il 05 a 00 ore UTC


032332Z 0400/0424 VRB03KT P6SM BKN080
FM041600 29008KT P6SM VCSH OVC025
PROB30 0416/0421 6SM -SHRA BKN015



MetMap, La meteo Aeronautica in un colpo d'occhio ! - Copyright ORBIFLY Dicembre 2007 - Disclaimer

ORBIFLY MET'MAP TEAM :

Programmazione e sviluppo : Alexandra Zaïnal
Concezione : Baudouin d'Aumeries
Aiuto per la programmazione : Marc-Olivier Méhu
Supporto tecnico e logistico : Manuel Goepfert
Aiuto per la traduzione : Arnaldo La Scala

Contatto : metmap@orbifly.com




FONTI E CREDITI :

   NOAA       Earth
Advisory